sensor_id;sensor_type;location;lat;lon;timestamp;P1;durP1;ratioP1;P2;durP2;ratioP2
76725;SDS011;65651;53.154;17.916;2023-12-29T00:00:29;5.80;;;3.30;;
76725;SDS011;65651;53.154;17.916;2023-12-29T00:03:17;6.70;;;3.30;;
76725;SDS011;65651;53.154;17.916;2023-12-29T00:05:44;9.70;;;3.20;;
76725;SDS011;65651;53.154;17.916;2023-12-29T00:08:11;8.20;;;3.70;;
76725;SDS011;65651;53.154;17.916;2023-12-29T00:10:38;6.80;;;3.50;;
76725;SDS011;65651;53.154;17.916;2023-12-29T00:13:05;6.10;;;3.00;;
76725;SDS011;65651;53.154;17.916;2023-12-29T00:15:35;5.50;;;3.10;;
76725;SDS011;65651;53.154;17.916;2023-12-29T00:18:03;5.50;;;3.20;;
76725;SDS011;65651;53.154;17.916;2023-12-29T00:20:31;7.20;;;3.60;;
76725;SDS011;65651;53.154;17.916;2023-12-29T00:23:01;7.00;;;2.40;;
76725;SDS011;65651;53.154;17.916;2023-12-29T00:25:31;8.20;;;3.20;;
76725;SDS011;65651;53.154;17.916;2023-12-29T00:27:58;5.30;;;2.40;;
76725;SDS011;65651;53.154;17.916;2023-12-29T00:30:28;6.60;;;3.00;;
76725;SDS011;65651;53.154;17.916;2023-12-29T00:32:56;6.80;;;2.90;;
76725;SDS011;65651;53.154;17.916;2023-12-29T00:35:23;7.60;;;3.40;;
76725;SDS011;65651;53.154;17.916;2023-12-29T00:37:51;10.30;;;4.00;;
76725;SDS011;65651;53.154;17.916;2023-12-29T00:40:19;5.70;;;3.00;;
76725;SDS011;65651;53.154;17.916;2023-12-29T00:42:46;8.90;;;4.30;;
76725;SDS011;65651;53.154;17.916;2023-12-29T00:45:13;7.50;;;3.70;;
76725;SDS011;65651;53.154;17.916;2023-12-29T00:47:41;5.80;;;3.00;;
76725;SDS011;65651;53.154;17.916;2023-12-29T00:50:08;7.20;;;3.30;;
76725;SDS011;65651;53.154;17.916;2023-12-29T00:52:35;6.50;;;3.50;;
76725;SDS011;65651;53.154;17.916;2023-12-29T00:55:06;6.50;;;3.00;;
76725;SDS011;65651;53.154;17.916;2023-12-29T00:57:33;8.00;;;3.30;;
76725;SDS011;65651;53.154;17.916;2023-12-29T01:00:01;6.40;;;3.60;;
76725;SDS011;65651;53.154;17.916;2023-12-29T01:02:28;6.40;;;2.70;;
76725;SDS011;65651;53.154;17.916;2023-12-29T01:04:56;7.40;;;3.30;;
76725;SDS011;65651;53.154;17.916;2023-12-29T01:07:23;7.60;;;3.00;;
76725;SDS011;65651;53.154;17.916;2023-12-29T01:09:50;4.10;;;3.10;;
76725;SDS011;65651;53.154;17.916;2023-12-29T01:12:18;6.00;;;2.20;;
76725;SDS011;65651;53.154;17.916;2023-12-29T01:14:45;7.50;;;3.20;;
76725;SDS011;65651;53.154;17.916;2023-12-29T01:17:12;5.70;;;2.60;;
76725;SDS011;65651;53.154;17.916;2023-12-29T01:19:40;4.90;;;2.10;;
76725;SDS011;65651;53.154;17.916;2023-12-29T01:22:10;6.60;;;2.90;;
76725;SDS011;65651;53.154;17.916;2023-12-29T01:24:37;8.70;;;4.10;;
76725;SDS011;65651;53.154;17.916;2023-12-29T01:27:04;6.70;;;2.90;;
76725;SDS011;65651;53.154;17.916;2023-12-29T01:29:32;5.70;;;3.20;;
76725;SDS011;65651;53.154;17.916;2023-12-29T01:31:59;7.00;;;3.70;;
76725;SDS011;65651;53.154;17.916;2023-12-29T01:34:27;7.30;;;3.10;;
76725;SDS011;65651;53.154;17.916;2023-12-29T01:36:59;6.00;;;3.10;;
76725;SDS011;65651;53.154;17.916;2023-12-29T01:39:29;6.20;;;2.80;;
76725;SDS011;65651;53.154;17.916;2023-12-29T01:41:57;6.40;;;2.50;;
76725;SDS011;65651;53.154;17.916;2023-12-29T01:44:24;7.00;;;3.00;;
76725;SDS011;65651;53.154;17.916;2023-12-29T01:46:55;7.10;;;3.50;;
76725;SDS011;65651;53.154;17.916;2023-12-29T01:49:25;7.80;;;3.00;;
76725;SDS011;65651;53.154;17.916;2023-12-29T01:51:57;5.90;;;2.90;;
76725;SDS011;65651;53.154;17.916;2023-12-29T01:54:33;5.40;;;2.90;;
76725;SDS011;65651;53.154;17.916;2023-12-29T01:57:02;4.00;;;2.00;;
76725;SDS011;65651;53.154;17.916;2023-12-29T01:59:30;4.40;;;2.40;;
76725;SDS011;65651;53.154;17.916;2023-12-29T02:01:58;4.90;;;2.50;;
76725;SDS011;65651;53.154;17.916;2023-12-29T02:04:29;5.00;;;2.70;;
76725;SDS011;65651;53.154;17.916;2023-12-29T02:06:57;6.40;;;3.00;;
76725;SDS011;65651;53.154;17.916;2023-12-29T02:09:25;5.10;;;2.30;;
76725;SDS011;65651;53.154;17.916;2023-12-29T02:11:54;5.20;;;2.70;;
76725;SDS011;65651;53.154;17.916;2023-12-29T02:14:21;3.60;;;2.00;;
76725;SDS011;65651;53.154;17.916;2023-12-29T02:17:01;3.60;;;2.40;;
76725;SDS011;65651;53.154;17.916;2023-12-29T02:22:06;5.20;;;2.30;;
76725;SDS011;65651;53.154;17.916;2023-12-29T02:24:34;6.20;;;2.10;;
76725;SDS011;65651;53.154;17.916;2023-12-29T02:32:39;6.30;;;2.60;;
76725;SDS011;65651;53.154;17.916;2023-12-29T02:35:14;3.70;;;1.70;;
76725;SDS011;65651;53.154;17.916;2023-12-29T02:37:45;7.10;;;2.10;;
76725;SDS011;65651;53.154;17.916;2023-12-29T02:40:14;5.50;;;2.60;;
76725;SDS011;65651;53.154;17.916;2023-12-29T02:42:46;7.90;;;3.20;;
76725;SDS011;65651;53.154;17.916;2023-12-29T02:45:15;6.60;;;3.10;;
76725;SDS011;65651;53.154;17.916;2023-12-29T02:47:43;6.00;;;2.10;;
76725;SDS011;65651;53.154;17.916;2023-12-29T02:50:10;5.30;;;2.10;;
76725;SDS011;65651;53.154;17.916;2023-12-29T02:52:38;7.20;;;2.90;;
76725;SDS011;65651;53.154;17.916;2023-12-29T02:55:06;7.00;;;2.60;;
76725;SDS011;65651;53.154;17.916;2023-12-29T02:57:34;8.80;;;2.80;;
76725;SDS011;65651;53.154;17.916;2023-12-29T03:00:03;8.90;;;2.50;;
76725;SDS011;65651;53.154;17.916;2023-12-29T03:02:32;6.30;;;3.50;;
76725;SDS011;65651;53.154;17.916;2023-12-29T03:05:00;3.80;;;2.00;;
76725;SDS011;65651;53.154;17.916;2023-12-29T03:07:27;6.40;;;2.50;;
76725;SDS011;65651;53.154;17.916;2023-12-29T03:09:55;7.00;;;2.70;;
76725;SDS011;65651;53.154;17.916;2023-12-29T03:12:22;5.50;;;2.80;;
76725;SDS011;65651;53.154;17.916;2023-12-29T03:14:50;4.30;;;1.90;;
76725;SDS011;65651;53.154;17.916;2023-12-29T03:17:20;4.50;;;2.20;;
76725;SDS011;65651;53.154;17.916;2023-12-29T03:19:47;3.90;;;1.90;;
76725;SDS011;65651;53.154;17.916;2023-12-29T03:22:14;5.00;;;1.50;;
76725;SDS011;65651;53.154;17.916;2023-12-29T03:24:41;4.10;;;2.30;;
76725;SDS011;65651;53.154;17.916;2023-12-29T03:27:09;4.80;;;2.60;;
76725;SDS011;65651;53.154;17.916;2023-12-29T03:29:37;3.50;;;1.60;;
76725;SDS011;65651;53.154;17.916;2023-12-29T03:32:04;5.90;;;2.20;;
76725;SDS011;65651;53.154;17.916;2023-12-29T03:34:33;4.00;;;2.30;;
76725;SDS011;65651;53.154;17.916;2023-12-29T03:37:01;4.80;;;2.70;;
76725;SDS011;65651;53.154;17.916;2023-12-29T03:39:28;3.50;;;2.30;;
76725;SDS011;65651;53.154;17.916;2023-12-29T03:41:56;4.50;;;2.00;;
76725;SDS011;65651;53.154;17.916;2023-12-29T03:44:24;4.60;;;2.40;;
76725;SDS011;65651;53.154;17.916;2023-12-29T03:46:51;4.10;;;2.10;;
76725;SDS011;65651;53.154;17.916;2023-12-29T03:49:23;3.30;;;1.90;;
76725;SDS011;65651;53.154;17.916;2023-12-29T03:51:50;3.80;;;2.30;;
76725;SDS011;65651;53.154;17.916;2023-12-29T03:54:18;6.00;;;2.20;;
76725;SDS011;65651;53.154;17.916;2023-12-29T03:56:46;5.40;;;2.30;;
76725;SDS011;65651;53.154;17.916;2023-12-29T03:59:14;6.20;;;2.10;;
76725;SDS011;65651;53.154;17.916;2023-12-29T04:01:41;5.00;;;2.30;;
76725;SDS011;65651;53.154;17.916;2023-12-29T04:04:13;3.90;;;1.70;;
76725;SDS011;65651;53.154;17.916;2023-12-29T04:06:40;2.80;;;1.50;;
76725;SDS011;65651;53.154;17.916;2023-12-29T04:09:07;6.30;;;3.20;;
76725;SDS011;65651;53.154;17.916;2023-12-29T04:11:35;4.40;;;2.50;;
76725;SDS011;65651;53.154;17.916;2023-12-29T04:14:02;3.90;;;2.10;;
76725;SDS011;65651;53.154;17.916;2023-12-29T04:16:30;3.60;;;1.60;;
76725;SDS011;65651;53.154;17.916;2023-12-29T04:18:57;3.60;;;1.90;;
76725;SDS011;65651;53.154;17.916;2023-12-29T04:21:24;6.30;;;2.50;;
76725;SDS011;65651;53.154;17.916;2023-12-29T04:23:51;3.60;;;1.50;;
76725;SDS011;65651;53.154;17.916;2023-12-29T04:26:19;4.80;;;2.20;;
76725;SDS011;65651;53.154;17.916;2023-12-29T04:28:46;5.50;;;2.60;;
76725;SDS011;65651;53.154;17.916;2023-12-29T04:31:13;5.00;;;2.80;;
76725;SDS011;65651;53.154;17.916;2023-12-29T04:33:44;5.40;;;2.60;;
76725;SDS011;65651;53.154;17.916;2023-12-29T04:36:12;6.30;;;2.60;;
76725;SDS011;65651;53.154;17.916;2023-12-29T04:38:39;4.60;;;2.60;;
76725;SDS011;65651;53.154;17.916;2023-12-29T04:41:07;5.60;;;3.10;;
76725;SDS011;65651;53.154;17.916;2023-12-29T04:43:34;8.60;;;3.70;;
76725;SDS011;65651;53.154;17.916;2023-12-29T04:46:01;9.10;;;4.30;;
76725;SDS011;65651;53.154;17.916;2023-12-29T04:48:28;12.20;;;3.90;;
76725;SDS011;65651;53.154;17.916;2023-12-29T04:50:56;5.50;;;2.30;;
76725;SDS011;65651;53.154;17.916;2023-12-29T04:53:23;5.40;;;2.20;;
76725;SDS011;65651;53.154;17.916;2023-12-29T04:55:50;4.70;;;2.20;;
76725;SDS011;65651;53.154;17.916;2023-12-29T04:58:18;4.40;;;1.80;;
76725;SDS011;65651;53.154;17.916;2023-12-29T05:00:45;4.70;;;2.20;;
76725;SDS011;65651;53.154;17.916;2023-12-29T05:03:13;8.50;;;3.10;;
76725;SDS011;65651;53.154;17.916;2023-12-29T05:05:41;7.00;;;2.60;;
76725;SDS011;65651;53.154;17.916;2023-12-29T05:08:08;8.60;;;2.90;;
76725;SDS011;65651;53.154;17.916;2023-12-29T05:10:35;10.30;;;3.40;;
76725;SDS011;65651;53.154;17.916;2023-12-29T05:13:06;10.30;;;3.40;;
76725;SDS011;65651;53.154;17.916;2023-12-29T05:15:36;7.50;;;2.90;;
76725;SDS011;65651;53.154;17.916;2023-12-29T05:18:04;6.40;;;2.80;;
76725;SDS011;65651;53.154;17.916;2023-12-29T05:20:31;4.70;;;2.60;;
76725;SDS011;65651;53.154;17.916;2023-12-29T05:23:00;5.60;;;2.90;;
76725;SDS011;65651;53.154;17.916;2023-12-29T05:25:27;7.50;;;2.70;;
76725;SDS011;65651;53.154;17.916;2023-12-29T05:27:54;4.50;;;1.80;;
76725;SDS011;65651;53.154;17.916;2023-12-29T05:30:21;8.80;;;2.10;;
76725;SDS011;65651;53.154;17.916;2023-12-29T05:32:49;9.70;;;4.50;;
76725;SDS011;65651;53.154;17.916;2023-12-29T05:35:17;4.60;;;2.10;;
76725;SDS011;65651;53.154;17.916;2023-12-29T05:37:45;8.00;;;3.30;;
76725;SDS011;65651;53.154;17.916;2023-12-29T05:40:12;17.10;;;6.80;;
76725;SDS011;65651;53.154;17.916;2023-12-29T05:42:39;10.80;;;4.90;;
76725;SDS011;65651;53.154;17.916;2023-12-29T05:45:07;5.10;;;2.40;;
76725;SDS011;65651;53.154;17.916;2023-12-29T05:47:35;18.00;;;7.50;;
76725;SDS011;65651;53.154;17.916;2023-12-29T05:50:02;16.30;;;8.10;;
76725;SDS011;65651;53.154;17.916;2023-12-29T05:52:30;14.00;;;4.80;;
76725;SDS011;65651;53.154;17.916;2023-12-29T05:54:57;25.50;;;6.40;;
76725;SDS011;65651;53.154;17.916;2023-12-29T05:57:24;44.60;;;9.30;;
76725;SDS011;65651;53.154;17.916;2023-12-29T05:59:51;62.50;;;15.10;;
76725;SDS011;65651;53.154;17.916;2023-12-29T06:02:19;114.60;;;31.70;;
76725;SDS011;65651;53.154;17.916;2023-12-29T06:04:46;63.80;;;15.90;;
76725;SDS011;65651;53.154;17.916;2023-12-29T06:07:14;29.00;;;7.30;;
76725;SDS011;65651;53.154;17.916;2023-12-29T06:09:41;15.70;;;5.00;;
76725;SDS011;65651;53.154;17.916;2023-12-29T06:12:08;24.20;;;6.80;;
76725;SDS011;65651;53.154;17.916;2023-12-29T06:14:39;8.90;;;3.20;;
76725;SDS011;65651;53.154;17.916;2023-12-29T06:17:06;19.10;;;5.40;;
76725;SDS011;65651;53.154;17.916;2023-12-29T06:19:33;16.30;;;5.20;;
76725;SDS011;65651;53.154;17.916;2023-12-29T06:22:03;20.70;;;6.30;;
76725;SDS011;65651;53.154;17.916;2023-12-29T06:24:33;10.20;;;4.10;;
76725;SDS011;65651;53.154;17.916;2023-12-29T06:27:00;10.00;;;3.80;;
76725;SDS011;65651;53.154;17.916;2023-12-29T06:29:28;10.10;;;3.20;;
76725;SDS011;65651;53.154;17.916;2023-12-29T06:31:55;6.70;;;2.60;;
76725;SDS011;65651;53.154;17.916;2023-12-29T06:34:22;12.80;;;3.30;;
76725;SDS011;65651;53.154;17.916;2023-12-29T06:36:49;17.20;;;4.90;;
76725;SDS011;65651;53.154;17.916;2023-12-29T06:39:17;14.30;;;5.80;;
76725;SDS011;65651;53.154;17.916;2023-12-29T06:41:47;17.20;;;6.40;;
76725;SDS011;65651;53.154;17.916;2023-12-29T06:44:15;29.10;;;12.80;;
76725;SDS011;65651;53.154;17.916;2023-12-29T06:46:42;83.00;;;35.00;;
76725;SDS011;65651;53.154;17.916;2023-12-29T06:49:09;56.20;;;31.80;;
76725;SDS011;65651;53.154;17.916;2023-12-29T06:51:37;15.60;;;7.30;;
76725;SDS011;65651;53.154;17.916;2023-12-29T06:54:06;16.80;;;6.50;;
76725;SDS011;65651;53.154;17.916;2023-12-29T06:56:33;13.30;;;3.70;;
76725;SDS011;65651;53.154;17.916;2023-12-29T06:59:01;16.90;;;6.10;;
76725;SDS011;65651;53.154;17.916;2023-12-29T07:01:28;14.40;;;4.70;;
76725;SDS011;65651;53.154;17.916;2023-12-29T07:03:55;9.40;;;4.30;;
76725;SDS011;65651;53.154;17.916;2023-12-29T07:06:23;9.90;;;3.60;;
76725;SDS011;65651;53.154;17.916;2023-12-29T07:08:50;6.30;;;2.30;;
76725;SDS011;65651;53.154;17.916;2023-12-29T07:11:20;18.70;;;4.70;;
76725;SDS011;65651;53.154;17.916;2023-12-29T07:13:48;10.60;;;4.40;;
76725;SDS011;65651;53.154;17.916;2023-12-29T07:16:15;7.40;;;3.00;;
76725;SDS011;65651;53.154;17.916;2023-12-29T07:18:42;18.10;;;10.10;;
76725;SDS011;65651;53.154;17.916;2023-12-29T07:21:09;47.00;;;33.40;;
76725;SDS011;65651;53.154;17.916;2023-12-29T07:23:39;71.40;;;21.00;;
76725;SDS011;65651;53.154;17.916;2023-12-29T07:26:08;42.20;;;13.50;;
76725;SDS011;65651;53.154;17.916;2023-12-29T07:28:35;60.30;;;15.60;;
76725;SDS011;65651;53.154;17.916;2023-12-29T07:31:03;37.80;;;10.00;;
76725;SDS011;65651;53.154;17.916;2023-12-29T07:33:30;69.30;;;37.80;;
76725;SDS011;65651;53.154;17.916;2023-12-29T07:35:57;56.80;;;18.70;;
76725;SDS011;65651;53.154;17.916;2023-12-29T07:38:25;80.80;;;20.30;;
76725;SDS011;65651;53.154;17.916;2023-12-29T07:40:52;70.20;;;16.90;;
76725;SDS011;65651;53.154;17.916;2023-12-29T07:43:19;24.10;;;6.00;;
76725;SDS011;65651;53.154;17.916;2023-12-29T07:45:50;17.50;;;6.10;;
76725;SDS011;65651;53.154;17.916;2023-12-29T07:48:17;24.00;;;7.30;;
76725;SDS011;65651;53.154;17.916;2023-12-29T07:50:44;31.10;;;8.40;;
76725;SDS011;65651;53.154;17.916;2023-12-29T07:53:12;11.40;;;4.40;;
76725;SDS011;65651;53.154;17.916;2023-12-29T07:55:42;30.80;;;8.80;;
76725;SDS011;65651;53.154;17.916;2023-12-29T07:58:10;34.10;;;9.50;;
76725;SDS011;65651;53.154;17.916;2023-12-29T08:00:38;19.70;;;5.70;;
76725;SDS011;65651;53.154;17.916;2023-12-29T08:03:05;24.90;;;6.60;;
76725;SDS011;65651;53.154;17.916;2023-12-29T08:05:34;12.50;;;3.70;;
76725;SDS011;65651;53.154;17.916;2023-12-29T08:08:05;28.80;;;7.10;;
76725;SDS011;65651;53.154;17.916;2023-12-29T08:10:33;17.90;;;6.00;;
76725;SDS011;65651;53.154;17.916;2023-12-29T08:13:00;41.80;;;11.60;;
76725;SDS011;65651;53.154;17.916;2023-12-29T08:15:27;9.50;;;2.80;;
76725;SDS011;65651;53.154;17.916;2023-12-29T08:17:55;19.60;;;4.80;;
76725;SDS011;65651;53.154;17.916;2023-12-29T08:20:22;17.60;;;5.00;;
76725;SDS011;65651;53.154;17.916;2023-12-29T08:22:51;36.90;;;8.60;;
76725;SDS011;65651;53.154;17.916;2023-12-29T08:25:19;26.70;;;7.40;;
76725;SDS011;65651;53.154;17.916;2023-12-29T08:27:46;46.20;;;12.30;;
76725;SDS011;65651;53.154;17.916;2023-12-29T08:30:14;16.00;;;4.90;;
76725;SDS011;65651;53.154;17.916;2023-12-29T08:32:41;12.40;;;4.40;;
76725;SDS011;65651;53.154;17.916;2023-12-29T08:35:08;8.40;;;3.50;;
76725;SDS011;65651;53.154;17.916;2023-12-29T08:37:36;5.00;;;1.50;;
76725;SDS011;65651;53.154;17.916;2023-12-29T08:40:03;6.60;;;3.20;;
76725;SDS011;65651;53.154;17.916;2023-12-29T08:42:31;6.50;;;2.60;;
76725;SDS011;65651;53.154;17.916;2023-12-29T08:45:01;7.00;;;2.30;;
76725;SDS011;65651;53.154;17.916;2023-12-29T08:47:36;4.00;;;2.10;;
76725;SDS011;65651;53.154;17.916;2023-12-29T08:50:03;7.80;;;3.50;;
76725;SDS011;65651;53.154;17.916;2023-12-29T08:52:31;3.00;;;1.70;;
76725;SDS011;65651;53.154;17.916;2023-12-29T08:55:00;5.10;;;1.90;;
76725;SDS011;65651;53.154;17.916;2023-12-29T08:57:27;8.40;;;2.90;;
76725;SDS011;65651;53.154;17.916;2023-12-29T08:59:54;5.10;;;2.20;;
76725;SDS011;65651;53.154;17.916;2023-12-29T09:02:22;15.30;;;5.30;;
76725;SDS011;65651;53.154;17.916;2023-12-29T09:04:49;12.00;;;4.00;;
76725;SDS011;65651;53.154;17.916;2023-12-29T09:07:16;25.40;;;5.80;;
76725;SDS011;65651;53.154;17.916;2023-12-29T09:09:43;22.30;;;6.10;;
76725;SDS011;65651;53.154;17.916;2023-12-29T09:12:11;21.00;;;6.30;;
76725;SDS011;65651;53.154;17.916;2023-12-29T09:14:38;21.70;;;6.50;;
76725;SDS011;65651;53.154;17.916;2023-12-29T09:17:05;6.30;;;2.50;;
76725;SDS011;65651;53.154;17.916;2023-12-29T09:19:32;19.80;;;6.60;;
76725;SDS011;65651;53.154;17.916;2023-12-29T09:22:00;14.80;;;6.70;;
76725;SDS011;65651;53.154;17.916;2023-12-29T09:24:27;19.90;;;7.00;;
76725;SDS011;65651;53.154;17.916;2023-12-29T09:26:54;11.60;;;5.50;;
76725;SDS011;65651;53.154;17.916;2023-12-29T09:29:21;12.80;;;4.70;;
76725;SDS011;65651;53.154;17.916;2023-12-29T09:31:51;7.60;;;3.00;;
76725;SDS011;65651;53.154;17.916;2023-12-29T09:34:21;24.80;;;4.40;;
76725;SDS011;65651;53.154;17.916;2023-12-29T09:36:49;6.60;;;3.00;;
76725;SDS011;65651;53.154;17.916;2023-12-29T09:39:16;5.00;;;2.20;;
76725;SDS011;65651;53.154;17.916;2023-12-29T09:41:45;5.20;;;2.50;;
76725;SDS011;65651;53.154;17.916;2023-12-29T09:44:14;6.00;;;3.20;;
76725;SDS011;65651;53.154;17.916;2023-12-29T09:46:42;9.30;;;2.80;;
76725;SDS011;65651;53.154;17.916;2023-12-29T09:49:11;5.80;;;2.90;;
76725;SDS011;65651;53.154;17.916;2023-12-29T09:51:40;5.40;;;2.80;;
76725;SDS011;65651;53.154;17.916;2023-12-29T09:54:09;3.80;;;1.40;;
76725;SDS011;65651;53.154;17.916;2023-12-29T09:56:37;5.50;;;2.70;;
76725;SDS011;65651;53.154;17.916;2023-12-29T09:59:05;5.20;;;1.80;;
76725;SDS011;65651;53.154;17.916;2023-12-29T10:01:36;4.50;;;2.30;;
76725;SDS011;65651;53.154;17.916;2023-12-29T10:04:04;5.00;;;1.70;;
76725;SDS011;65651;53.154;17.916;2023-12-29T10:06:36;18.00;;;6.20;;
76725;SDS011;65651;53.154;17.916;2023-12-29T10:09:07;36.70;;;12.80;;
76725;SDS011;65651;53.154;17.916;2023-12-29T10:11:40;42.80;;;15.60;;
76725;SDS011;65651;53.154;17.916;2023-12-29T10:14:14;84.30;;;21.70;;
76725;SDS011;65651;53.154;17.916;2023-12-29T10:17:08;25.20;;;7.50;;
76725;SDS011;65651;53.154;17.916;2023-12-29T10:20:12;14.50;;;4.20;;
76725;SDS011;65651;53.154;17.916;2023-12-29T10:23:05;14.60;;;4.70;;
76725;SDS011;65651;53.154;17.916;2023-12-29T10:25:35;5.70;;;2.10;;
76725;SDS011;65651;53.154;17.916;2023-12-29T10:28:04;5.20;;;2.50;;
76725;SDS011;65651;53.154;17.916;2023-12-29T10:30:32;3.70;;;1.90;;
76725;SDS011;65651;53.154;17.916;2023-12-29T10:33:00;7.50;;;2.40;;
76725;SDS011;65651;53.154;17.916;2023-12-29T10:35:30;5.90;;;2.20;;
76725;SDS011;65651;53.154;17.916;2023-12-29T10:38:08;11.50;;;5.10;;
76725;SDS011;65651;53.154;17.916;2023-12-29T10:40:40;11.30;;;4.50;;
76725;SDS011;65651;53.154;17.916;2023-12-29T10:43:09;17.60;;;6.70;;
76725;SDS011;65651;53.154;17.916;2023-12-29T10:45:48;11.00;;;3.50;;
76725;SDS011;65651;53.154;17.916;2023-12-29T10:48:21;8.00;;;3.40;;
76725;SDS011;65651;53.154;17.916;2023-12-29T10:50:52;9.90;;;4.80;;
76725;SDS011;65651;53.154;17.916;2023-12-29T10:53:20;6.70;;;3.10;;
76725;SDS011;65651;53.154;17.916;2023-12-29T10:55:50;6.70;;;3.60;;
76725;SDS011;65651;53.154;17.916;2023-12-29T10:58:18;12.90;;;5.00;;
76725;SDS011;65651;53.154;17.916;2023-12-29T11:00:46;10.70;;;4.50;;
76725;SDS011;65651;53.154;17.916;2023-12-29T11:03:14;17.00;;;7.80;;
76725;SDS011;65651;53.154;17.916;2023-12-29T11:05:47;8.60;;;3.10;;
76725;SDS011;65651;53.154;17.916;2023-12-29T11:08:18;11.80;;;4.30;;
76725;SDS011;65651;53.154;17.916;2023-12-29T11:10:48;8.60;;;2.50;;
76725;SDS011;65651;53.154;17.916;2023-12-29T11:13:16;8.60;;;4.70;;
76725;SDS011;65651;53.154;17.916;2023-12-29T11:15:43;15.30;;;7.40;;
76725;SDS011;65651;53.154;17.916;2023-12-29T11:18:13;15.70;;;6.10;;
76725;SDS011;65651;53.154;17.916;2023-12-29T11:20:42;23.40;;;9.40;;
76725;SDS011;65651;53.154;17.916;2023-12-29T11:23:13;14.30;;;5.60;;
76725;SDS011;65651;53.154;17.916;2023-12-29T11:25:41;15.60;;;6.40;;
76725;SDS011;65651;53.154;17.916;2023-12-29T11:28:11;15.30;;;6.40;;
76725;SDS011;65651;53.154;17.916;2023-12-29T11:30:39;14.70;;;7.20;;
76725;SDS011;65651;53.154;17.916;2023-12-29T11:36:15;19.20;;;5.70;;
76725;SDS011;65651;53.154;17.916;2023-12-29T11:38:52;15.10;;;6.50;;
76725;SDS011;65651;53.154;17.916;2023-12-29T11:41:31;10.20;;;3.20;;
76725;SDS011;65651;53.154;17.916;2023-12-29T11:44:06;8.10;;;4.40;;
76725;SDS011;65651;53.154;17.916;2023-12-29T11:46:42;31.70;;;13.90;;
76725;SDS011;65651;53.154;17.916;2023-12-29T11:49:10;10.70;;;5.50;;
76725;SDS011;65651;53.154;17.916;2023-12-29T11:51:46;21.10;;;8.20;;
76725;SDS011;65651;53.154;17.916;2023-12-29T11:54:22;10.70;;;4.40;;
76725;SDS011;65651;53.154;17.916;2023-12-29T11:56:55;12.10;;;5.50;;
76725;SDS011;65651;53.154;17.916;2023-12-29T11:59:23;14.30;;;4.40;;
76725;SDS011;65651;53.154;17.916;2023-12-29T12:01:54;17.50;;;5.90;;
76725;SDS011;65651;53.154;17.916;2023-12-29T12:09:49;17.60;;;6.60;;
76725;SDS011;65651;53.154;17.916;2023-12-29T12:18:00;14.50;;;4.90;;
76725;SDS011;65651;53.154;17.916;2023-12-29T12:20:36;17.70;;;6.80;;
76725;SDS011;65651;53.154;17.916;2023-12-29T12:23:16;23.30;;;7.40;;
76725;SDS011;65651;53.154;17.916;2023-12-29T12:25:45;13.00;;;5.70;;
76725;SDS011;65651;53.154;17.916;2023-12-29T12:28:13;13.10;;;5.50;;
76725;SDS011;65651;53.154;17.916;2023-12-29T12:30:42;15.20;;;5.80;;
76725;SDS011;65651;53.154;17.916;2023-12-29T12:33:10;21.80;;;6.70;;
76725;SDS011;65651;53.154;17.916;2023-12-29T12:35:40;18.10;;;6.70;;
76725;SDS011;65651;53.154;17.916;2023-12-29T12:38:08;23.20;;;8.80;;
76725;SDS011;65651;53.154;17.916;2023-12-29T12:40:39;25.00;;;8.70;;
76725;SDS011;65651;53.154;17.916;2023-12-29T12:43:07;14.20;;;5.80;;
76725;SDS011;65651;53.154;17.916;2023-12-29T12:45:37;17.30;;;5.40;;
76725;SDS011;65651;53.154;17.916;2023-12-29T12:48:12;26.60;;;7.10;;
76725;SDS011;65651;53.154;17.916;2023-12-29T12:51:00;22.40;;;6.80;;
76725;SDS011;65651;53.154;17.916;2023-12-29T12:53:27;36.90;;;11.80;;
76725;SDS011;65651;53.154;17.916;2023-12-29T12:55:55;21.20;;;5.30;;
76725;SDS011;65651;53.154;17.916;2023-12-29T12:58:23;23.50;;;7.30;;
76725;SDS011;65651;53.154;17.916;2023-12-29T13:00:53;21.70;;;6.60;;
76725;SDS011;65651;53.154;17.916;2023-12-29T13:03:24;20.70;;;8.10;;
76725;SDS011;65651;53.154;17.916;2023-12-29T13:05:51;24.50;;;8.50;;
76725;SDS011;65651;53.154;17.916;2023-12-29T13:08:20;38.80;;;12.80;;
76725;SDS011;65651;53.154;17.916;2023-12-29T13:10:48;18.70;;;7.00;;
76725;SDS011;65651;53.154;17.916;2023-12-29T13:13:15;21.40;;;7.30;;
76725;SDS011;65651;53.154;17.916;2023-12-29T13:15:46;28.10;;;8.90;;
76725;SDS011;65651;53.154;17.916;2023-12-29T13:18:17;28.50;;;10.80;;
76725;SDS011;65651;53.154;17.916;2023-12-29T13:20:47;27.10;;;11.00;;
76725;SDS011;65651;53.154;17.916;2023-12-29T13:23:14;18.70;;;5.90;;
76725;SDS011;65651;53.154;17.916;2023-12-29T13:25:46;20.90;;;6.90;;
76725;SDS011;65651;53.154;17.916;2023-12-29T13:28:15;14.00;;;4.50;;
76725;SDS011;65651;53.154;17.916;2023-12-29T13:30:43;10.40;;;3.60;;
76725;SDS011;65651;53.154;17.916;2023-12-29T13:33:12;12.80;;;4.70;;
76725;SDS011;65651;53.154;17.916;2023-12-29T13:35:50;9.50;;;2.60;;
76725;SDS011;65651;53.154;17.916;2023-12-29T13:38:25;8.70;;;4.70;;
76725;SDS011;65651;53.154;17.916;2023-12-29T13:40:56;9.00;;;4.00;;
76725;SDS011;65651;53.154;17.916;2023-12-29T13:43:31;16.50;;;5.00;;
76725;SDS011;65651;53.154;17.916;2023-12-29T13:46:01;22.40;;;9.40;;
76725;SDS011;65651;53.154;17.916;2023-12-29T13:48:29;16.10;;;6.30;;
76725;SDS011;65651;53.154;17.916;2023-12-29T13:50:59;19.80;;;9.30;;
76725;SDS011;65651;53.154;17.916;2023-12-29T13:53:26;17.20;;;7.30;;
76725;SDS011;65651;53.154;17.916;2023-12-29T13:55:54;41.50;;;17.70;;
76725;SDS011;65651;53.154;17.916;2023-12-29T13:58:32;15.10;;;5.30;;
76725;SDS011;65651;53.154;17.916;2023-12-29T14:01:00;6.90;;;3.60;;
76725;SDS011;65651;53.154;17.916;2023-12-29T14:03:43;6.90;;;3.70;;
76725;SDS011;65651;53.154;17.916;2023-12-29T14:06:21;16.20;;;7.90;;
76725;SDS011;65651;53.154;17.916;2023-12-29T14:08:54;16.70;;;9.30;;
76725;SDS011;65651;53.154;17.916;2023-12-29T14:11:24;21.70;;;10.50;;
76725;SDS011;65651;53.154;17.916;2023-12-29T14:13:52;27.70;;;12.00;;
76725;SDS011;65651;53.154;17.916;2023-12-29T14:16:20;25.00;;;11.90;;
76725;SDS011;65651;53.154;17.916;2023-12-29T14:18:52;27.30;;;12.70;;
76725;SDS011;65651;53.154;17.916;2023-12-29T14:21:21;22.00;;;9.60;;
76725;SDS011;65651;53.154;17.916;2023-12-29T14:26:36;14.50;;;5.90;;
76725;SDS011;65651;53.154;17.916;2023-12-29T14:29:08;23.90;;;8.90;;
76725;SDS011;65651;53.154;17.916;2023-12-29T14:31:37;25.10;;;9.60;;
76725;SDS011;65651;53.154;17.916;2023-12-29T14:34:09;41.10;;;11.80;;
76725;SDS011;65651;53.154;17.916;2023-12-29T14:36:39;198.00;;;48.90;;
76725;SDS011;65651;53.154;17.916;2023-12-29T14:39:10;134.60;;;43.10;;
76725;SDS011;65651;53.154;17.916;2023-12-29T14:41:38;507.30;;;129.60;;
76725;SDS011;65651;53.154;17.916;2023-12-29T14:44:05;125.00;;;45.10;;
76725;SDS011;65651;53.154;17.916;2023-12-29T14:46:33;88.30;;;37.20;;
76725;SDS011;65651;53.154;17.916;2023-12-29T14:49:03;52.80;;;21.70;;
76725;SDS011;65651;53.154;17.916;2023-12-29T14:51:34;110.40;;;27.10;;
76725;SDS011;65651;53.154;17.916;2023-12-29T14:54:01;102.70;;;23.90;;
76725;SDS011;65651;53.154;17.916;2023-12-29T14:56:30;274.40;;;67.40;;
76725;SDS011;65651;53.154;17.916;2023-12-29T14:58:57;155.60;;;31.70;;
76725;SDS011;65651;53.154;17.916;2023-12-29T15:01:24;40.80;;;17.30;;